РПИ Петропавловск-Камчатский

Сквоки, район применения ICAO EUR-J: ПетропавловскКамчатский 6630-6657

Лого Петропавловск-Камчатский
Руководитель РПИ

Sergey Balandin*

Инструкторы РПИ
Ivan Aksenenko (Instructor)
Sergey Balandin (Senior Instructor)
Входит в состав
ЗЦ Хабаровск

Диспетчеры РПИ

Диспетчер Рейтинг Допуски *
Sergey Balandin Senior Instructor UHPP_CTR
Daniel Cherednichenko Student 2 UHPP_GND!!!
Denis Makosov Senior Student UHPP_TWR
Igor Zarubin Student UHPP_TWR*

Аэропорты РПИ

ICAO Город Название Погода
UHPP Петропавловск-Камчатский Елизово UHPP 020100Z 36008MPS 9999 SCT043 18/10 Q0997 R34L/290155 NOSIG RMK MT OBSC QFE744/0992